createdAt,value
2018-11-23T00:00:57.715Z,0
2018-11-23T00:01:59.094Z,0
2018-11-23T00:03:00.488Z,0
2018-11-23T00:04:01.872Z,0
2018-11-23T00:05:03.247Z,0
2018-11-23T00:06:04.627Z,0
2018-11-23T00:07:06.000Z,0
2018-11-23T00:08:07.380Z,0
2018-11-23T00:09:08.758Z,0
2018-11-23T00:10:11.084Z,0
2018-11-23T00:11:11.478Z,0
2018-11-23T00:12:12.859Z,0
2018-11-23T00:13:14.231Z,0
2018-11-23T00:14:15.606Z,0
2018-11-23T00:15:16.988Z,0
2018-11-23T00:16:18.362Z,0
2018-11-23T00:17:19.740Z,0
2018-11-23T00:18:21.117Z,0
2018-11-23T00:19:22.492Z,0
2018-11-23T00:20:23.894Z,0
2018-11-23T00:21:25.291Z,0
2018-11-23T00:22:26.670Z,0
2018-11-23T00:23:28.048Z,0
2018-11-23T00:24:29.426Z,0
2018-11-23T00:25:30.808Z,0
2018-11-23T00:26:32.185Z,0
2018-11-23T00:27:33.565Z,0
2018-11-23T00:28:34.940Z,0
2018-11-23T00:29:36.318Z,0
2018-11-23T00:30:37.698Z,0
2018-11-23T00:31:39.073Z,0
2018-11-23T00:32:40.449Z,0
2018-11-23T00:33:41.828Z,0
2018-11-23T00:34:43.204Z,0
2018-11-23T00:35:44.582Z,0
2018-11-23T00:36:45.961Z,0
2018-11-23T00:37:47.340Z,0
2018-11-23T00:38:48.712Z,0
2018-11-23T00:39:50.091Z,0
2018-11-23T00:40:51.524Z,0
2018-11-23T00:41:52.894Z,0
2018-11-23T00:42:54.270Z,0
2018-11-23T00:43:55.654Z,0
2018-11-23T00:44:57.029Z,0
2018-11-23T00:45:58.400Z,0
2018-11-23T00:46:59.774Z,0
2018-11-23T00:48:01.157Z,0
2018-11-23T00:49:02.537Z,0
2018-11-23T00:50:03.915Z,0
2018-11-23T00:51:05.299Z,0
2018-11-23T00:52:06.675Z,0
2018-11-23T00:53:08.051Z,0
2018-11-23T00:54:09.425Z,0
2018-11-23T00:55:10.802Z,0
2018-11-23T00:56:12.179Z,0
2018-11-23T00:57:13.556Z,0
2018-11-23T00:58:14.932Z,0
2018-11-23T00:59:16.310Z,0
2018-11-23T01:00:17.688Z,0
2018-11-23T01:01:19.070Z,0
2018-11-23T01:02:20.444Z,0
2018-11-23T01:03:21.826Z,0
2018-11-23T01:04:23.203Z,0
2018-11-23T01:05:24.577Z,0
2018-11-23T01:06:25.958Z,0
2018-11-23T01:07:27.330Z,0
2018-11-23T01:08:28.707Z,0
2018-11-23T01:09:30.086Z,0
2018-11-23T01:10:31.472Z,0
2018-11-23T01:11:32.863Z,0
2018-11-23T01:12:34.313Z,0
2018-11-23T01:13:35.690Z,0
2018-11-23T01:14:37.066Z,0
2018-11-23T01:15:38.449Z,0
2018-11-23T01:16:39.823Z,0
2018-11-23T01:17:41.199Z,0
2018-11-23T01:18:42.581Z,0
2018-11-23T01:19:43.960Z,0
2018-11-23T01:20:45.340Z,0
2018-11-23T01:21:46.718Z,0
2018-11-23T01:22:48.097Z,0
2018-11-23T01:23:49.478Z,0
2018-11-23T01:24:50.852Z,0
2018-11-23T01:25:52.225Z,0
2018-11-23T01:26:53.602Z,0
2018-11-23T01:27:54.982Z,0
2018-11-23T01:28:56.357Z,0
2018-11-23T01:29:57.740Z,0
2018-11-23T01:30:59.115Z,0
2018-11-23T01:32:00.497Z,0
2018-11-23T01:33:01.876Z,0
2018-11-23T01:34:03.253Z,0
2018-11-23T01:35:04.630Z,0
2018-11-23T01:36:06.010Z,0
2018-11-23T01:37:07.381Z,0
2018-11-23T01:38:08.755Z,0
2018-11-23T01:39:10.134Z,0
2018-11-23T01:40:11.507Z,0
2018-11-23T01:41:12.885Z,0
2018-11-23T01:42:14.267Z,0
2018-11-23T01:43:15.641Z,0
2018-11-23T01:44:17.014Z,0
2018-11-23T01:45:18.401Z,0
2018-11-23T01:46:19.770Z,0
2018-11-23T01:47:21.149Z,0
2018-11-23T01:48:22.529Z,0
2018-11-23T01:49:23.906Z,0
2018-11-23T01:50:25.282Z,0
2018-11-23T01:51:26.660Z,0
2018-11-23T01:52:28.037Z,0
2018-11-23T01:53:29.416Z,0
2018-11-23T01:54:30.797Z,0
2018-11-23T01:55:32.171Z,0
2018-11-23T01:56:33.552Z,0
2018-11-23T01:57:34.926Z,0
2018-11-23T01:58:36.305Z,0
2018-11-23T01:59:37.677Z,0
2018-11-23T02:00:39.053Z,0
2018-11-23T02:01:40.424Z,0
2018-11-23T02:02:41.824Z,0
2018-11-23T02:03:43.223Z,0
2018-11-23T02:04:44.589Z,0
2018-11-23T02:05:45.965Z,0
2018-11-23T02:06:47.344Z,0
2018-11-23T02:07:48.719Z,0
2018-11-23T02:08:50.096Z,0
2018-11-23T02:09:51.481Z,0
2018-11-23T02:10:52.854Z,0
2018-11-23T02:11:54.229Z,0
2018-11-23T02:12:55.606Z,0
2018-11-23T02:13:56.982Z,0
2018-11-23T02:14:58.364Z,0
2018-11-23T02:15:59.740Z,0
2018-11-23T02:17:01.134Z,0
2018-11-23T02:18:02.510Z,0
2018-11-23T02:19:03.883Z,0
2018-11-23T02:20:05.267Z,0
2018-11-23T02:21:06.633Z,0
2018-11-23T02:22:08.014Z,0
2018-11-23T02:23:09.391Z,0
2018-11-23T02:24:10.774Z,0
2018-11-23T02:25:12.148Z,0
2018-11-23T02:26:13.523Z,0
2018-11-23T02:27:14.898Z,0
2018-11-23T02:28:16.277Z,0
2018-11-23T02:29:17.665Z,0
2018-11-23T02:30:19.048Z,0
2018-11-23T02:31:20.419Z,0
2018-11-23T02:32:21.797Z,0
2018-11-23T02:33:23.174Z,0
2018-11-23T02:34:24.550Z,0
2018-11-23T02:35:25.928Z,0
2018-11-23T02:36:27.301Z,0
2018-11-23T02:37:28.681Z,0
2018-11-23T02:38:30.063Z,0
2018-11-23T02:39:31.445Z,0
2018-11-23T02:40:32.838Z,0
2018-11-23T02:41:34.216Z,0
2018-11-23T02:42:35.595Z,0
2018-11-23T02:43:36.977Z,0
2018-11-23T02:44:38.354Z,0
2018-11-23T02:45:39.736Z,0
2018-11-23T02:46:41.114Z,0
2018-11-23T02:47:42.488Z,0
2018-11-23T02:48:43.868Z,0
2018-11-23T02:49:45.244Z,0
2018-11-23T02:50:46.623Z,0
2018-11-23T02:51:48.006Z,0
2018-11-23T02:52:49.380Z,0
2018-11-23T02:53:50.773Z,0
2018-11-23T02:54:52.149Z,0
2018-11-23T02:55:53.526Z,0
2018-11-23T02:56:54.903Z,0
2018-11-23T02:57:56.279Z,0
2018-11-23T02:58:57.660Z,0
2018-11-23T02:59:59.036Z,0
2018-11-23T03:01:00.421Z,0
2018-11-23T03:02:01.799Z,0
2018-11-23T03:03:03.184Z,0
2018-11-23T03:04:04.564Z,0
2018-11-23T03:05:05.941Z,0
2018-11-23T03:06:07.318Z,0
2018-11-23T03:07:08.696Z,0
2018-11-23T03:08:10.077Z,0
2018-11-23T03:09:11.453Z,0
2018-11-23T03:10:12.832Z,0
2018-11-23T03:11:14.210Z,0
2018-11-23T03:12:15.587Z,0
2018-11-23T03:13:16.966Z,0
2018-11-23T03:14:18.345Z,0
2018-11-23T03:15:19.760Z,0
2018-11-23T03:16:21.127Z,0
2018-11-23T03:17:22.505Z,0
2018-11-23T03:18:23.877Z,0
2018-11-23T03:19:25.257Z,0
2018-11-23T03:20:26.659Z,0
2018-11-23T03:21:28.023Z,0
2018-11-23T03:22:29.403Z,0
2018-11-23T03:23:30.779Z,0
2018-11-23T03:24:32.157Z,0
2018-11-23T03:25:33.535Z,0
2018-11-23T03:26:34.915Z,0
2018-11-23T03:27:36.290Z,0
2018-11-23T03:28:37.671Z,0
2018-11-23T03:29:39.049Z,0
2018-11-23T03:30:40.427Z,0
2018-11-23T03:31:41.802Z,0
2018-11-23T03:32:43.182Z,0
2018-11-23T03:33:44.565Z,0
2018-11-23T03:34:45.945Z,0
2018-11-23T03:35:47.329Z,0
2018-11-23T03:36:48.706Z,0
2018-11-23T03:37:50.082Z,0
2018-11-23T03:38:51.469Z,0
2018-11-23T03:39:52.836Z,0
2018-11-23T03:40:54.213Z,0
2018-11-23T03:41:55.591Z,0
2018-11-23T03:42:56.972Z,0
2018-11-23T03:43:58.362Z,0
2018-11-23T03:44:59.826Z,0
2018-11-23T03:46:01.252Z,0
2018-11-23T03:47:02.628Z,0
2018-11-23T03:48:04.005Z,0
2018-11-23T03:49:05.381Z,0
2018-11-23T03:50:06.769Z,0
2018-11-23T03:51:08.144Z,0
2018-11-23T03:52:09.519Z,0
2018-11-23T03:53:10.905Z,0
2018-11-23T03:54:12.275Z,0
2018-11-23T03:55:13.651Z,0
2018-11-23T03:56:15.029Z,0
2018-11-23T03:57:16.408Z,0
2018-11-23T03:58:17.787Z,0
2018-11-23T03:59:19.168Z,0
2018-11-23T04:00:20.545Z,0
2018-11-23T04:01:21.923Z,0
2018-11-23T04:02:23.298Z,0
2018-11-23T04:03:24.674Z,0
2018-11-23T04:04:26.054Z,0
2018-11-23T04:05:27.436Z,0
2018-11-23T04:06:28.818Z,0
2018-11-23T04:07:30.198Z,0
2018-11-23T04:08:31.572Z,0
2018-11-23T04:09:32.953Z,0
2018-11-23T04:10:34.330Z,0
2018-11-23T04:11:35.710Z,0
2018-11-23T04:12:37.095Z,0
2018-11-23T04:13:38.472Z,0
2018-11-23T04:14:39.850Z,0
2018-11-23T04:15:41.226Z,0
2018-11-23T04:16:42.607Z,0
2018-11-23T04:17:43.985Z,0
2018-11-23T04:18:45.366Z,0
2018-11-23T04:19:46.759Z,0
2018-11-23T04:20:48.125Z,0
2018-11-23T04:21:49.501Z,0
2018-11-23T04:22:50.879Z,0
2018-11-23T04:23:52.256Z,0
2018-11-23T04:24:53.640Z,0
2018-11-23T04:25:55.018Z,0
2018-11-23T04:26:56.399Z,0
2018-11-23T04:27:57.773Z,0
2018-11-23T04:28:59.150Z,0
2018-11-23T04:30:00.526Z,0
2018-11-23T04:31:01.906Z,0
2018-11-23T04:32:03.281Z,0
2018-11-23T04:33:04.659Z,0
2018-11-23T04:34:06.046Z,0
2018-11-23T04:35:07.420Z,0
2018-11-23T04:36:08.811Z,0
2018-11-23T04:37:10.190Z,0
2018-11-23T04:38:11.565Z,0
2018-11-23T04:39:12.944Z,0
2018-11-23T04:40:14.326Z,0
2018-11-23T04:41:15.738Z,0
2018-11-23T04:42:17.117Z,0
2018-11-23T04:43:18.496Z,0
2018-11-23T04:44:19.874Z,0
2018-11-23T04:45:21.251Z,0
2018-11-23T04:46:22.629Z,0
2018-11-23T04:47:24.010Z,0
2018-11-23T04:48:25.391Z,0
2018-11-23T04:49:26.768Z,0
2018-11-23T04:50:28.153Z,0
2018-11-23T04:51:29.526Z,0
2018-11-23T04:52:30.901Z,0
2018-11-23T04:53:32.285Z,0
2018-11-23T04:54:33.663Z,0
2018-11-23T04:55:35.042Z,0
2018-11-23T04:56:36.419Z,0
2018-11-23T04:57:37.796Z,0
2018-11-23T04:58:39.172Z,0
2018-11-23T04:59:40.552Z,0
2018-11-23T05:00:41.933Z,0
2018-11-23T05:01:43.315Z,0
2018-11-23T05:02:44.696Z,0
2018-11-23T05:03:46.074Z,0
2018-11-23T05:04:47.453Z,0
2018-11-23T05:05:48.827Z,0
2018-11-23T05:06:50.204Z,0
2018-11-23T05:07:51.581Z,0
2018-11-23T05:08:52.963Z,0
2018-11-23T05:09:54.342Z,0
2018-11-23T05:10:55.718Z,0
2018-11-23T05:11:57.097Z,0
2018-11-23T05:12:58.485Z,0
2018-11-23T05:13:59.863Z,0
2018-11-23T05:15:01.245Z,0
2018-11-23T05:16:02.622Z,0
2018-11-23T05:17:04.006Z,0
2018-11-23T05:18:05.382Z,0
2018-11-23T05:19:06.756Z,0
2018-11-23T05:20:08.131Z,0
2018-11-23T05:21:09.508Z,0
2018-11-23T05:22:10.886Z,0
2018-11-23T05:23:12.294Z,0
2018-11-23T05:24:13.704Z,0
2018-11-23T05:25:15.082Z,0
2018-11-23T05:26:16.465Z,0
2018-11-23T05:27:17.858Z,0
2018-11-23T05:28:19.334Z,0
2018-11-23T05:29:20.710Z,0
2018-11-23T05:30:22.093Z,0
2018-11-23T05:31:23.474Z,0
2018-11-23T05:32:24.849Z,0
2018-11-23T05:33:26.250Z,0
2018-11-23T05:34:27.625Z,0
2018-11-23T05:35:29.011Z,0
2018-11-23T05:36:30.389Z,0
2018-11-23T05:37:31.780Z,0
2018-11-23T05:38:33.227Z,0
2018-11-23T05:39:34.591Z,0
2018-11-23T05:40:35.979Z,0
2018-11-23T05:41:37.373Z,0
2018-11-23T05:42:38.766Z,0
2018-11-23T05:43:40.146Z,0
2018-11-23T05:44:41.523Z,0
2018-11-23T05:45:42.915Z,0
2018-11-23T05:46:44.294Z,0
2018-11-23T05:47:45.673Z,0
2018-11-23T05:48:47.053Z,0
2018-11-23T05:49:48.432Z,0
2018-11-23T05:50:49.817Z,0
2018-11-23T05:51:51.227Z,0
2018-11-23T05:52:52.581Z,0
2018-11-23T05:53:53.958Z,0
2018-11-23T05:54:55.335Z,0
2018-11-23T05:55:56.715Z,0
2018-11-23T05:56:58.097Z,0
2018-11-23T05:57:59.474Z,0
2018-11-23T05:59:00.855Z,0
2018-11-23T06:00:02.244Z,0
2018-11-23T06:01:03.618Z,0
2018-11-23T06:02:04.997Z,0
2018-11-23T06:03:06.373Z,0
2018-11-23T06:04:07.753Z,0
2018-11-23T06:05:09.130Z,0
2018-11-23T06:06:10.511Z,0
2018-11-23T06:07:11.889Z,0
2018-11-23T06:08:13.314Z,0
2018-11-23T06:09:14.643Z,0
2018-11-23T06:10:16.043Z,0
2018-11-23T06:11:17.427Z,0
2018-11-23T06:12:18.832Z,0
2018-11-23T06:13:20.222Z,0
2018-11-23T06:14:21.600Z,0
2018-11-23T06:15:22.996Z,0
2018-11-23T06:16:24.382Z,0
2018-11-23T06:17:25.756Z,4
2018-11-23T06:18:27.180Z,4
2018-11-23T06:19:28.610Z,4
2018-11-23T06:20:30.007Z,4
2018-11-23T06:21:31.385Z,4
2018-11-23T06:22:32.773Z,4
2018-11-23T06:23:34.147Z,4
2018-11-23T06:24:35.528Z,4
2018-11-23T06:25:36.908Z,4
2018-11-23T06:26:38.286Z,0
2018-11-23T06:27:39.679Z,0
2018-11-23T06:28:41.054Z,0
2018-11-23T06:29:42.433Z,0
2018-11-23T06:30:43.809Z,4
2018-11-23T06:31:45.187Z,4
2018-11-23T06:32:46.571Z,4
2018-11-23T06:33:47.955Z,4
2018-11-23T06:34:49.339Z,0
2018-11-23T06:35:50.725Z,4
2018-11-23T06:36:52.106Z,0
2018-11-23T06:37:53.482Z,4
2018-11-23T06:38:54.860Z,4
2018-11-23T06:39:56.236Z,8
2018-11-23T06:40:57.622Z,8
2018-11-23T06:41:58.998Z,8
2018-11-23T06:43:00.383Z,8
2018-11-23T06:44:01.758Z,8
2018-11-23T06:45:03.140Z,12
2018-11-23T06:46:04.520Z,12
2018-11-23T06:47:05.897Z,16
2018-11-23T06:48:07.285Z,20
2018-11-23T06:49:08.664Z,20
2018-11-23T06:50:10.044Z,24
2018-11-23T06:51:11.420Z,28
2018-11-23T06:52:12.805Z,32
2018-11-23T06:53:14.180Z,32
2018-11-23T06:54:15.572Z,36
2018-11-23T06:55:16.955Z,44
2018-11-23T06:56:18.334Z,44
2018-11-23T06:57:19.713Z,48
2018-11-23T06:58:21.089Z,56
2018-11-23T06:59:22.466Z,64
2018-11-23T07:00:23.846Z,72
2018-11-23T07:01:25.288Z,72
2018-11-23T07:02:26.668Z,84
2018-11-23T07:03:28.056Z,92
2018-11-23T07:04:29.439Z,96
2018-11-23T07:05:30.825Z,108
2018-11-23T07:06:32.217Z,116
2018-11-23T07:07:33.621Z,124
2018-11-23T07:08:34.993Z,132
2018-11-23T07:09:36.454Z,144
2018-11-23T07:10:37.893Z,156
2018-11-23T07:11:39.276Z,164
2018-11-23T07:12:40.666Z,172
2018-11-23T07:13:42.046Z,188
2018-11-23T07:14:43.454Z,196
2018-11-23T07:15:44.863Z,208
2018-11-23T07:16:46.247Z,216
2018-11-23T07:17:47.669Z,228
2018-11-23T07:18:49.109Z,232
2018-11-23T07:19:50.482Z,240
2018-11-23T07:20:51.888Z,248
2018-11-23T07:21:53.278Z,256
2018-11-23T07:22:54.726Z,264
2018-11-23T07:23:56.117Z,276
2018-11-23T07:24:57.501Z,288
2018-11-23T07:25:58.899Z,296
2018-11-23T07:27:00.296Z,308
2018-11-23T07:28:01.679Z,316
2018-11-23T07:29:03.062Z,328
2018-11-23T07:30:04.457Z,340
2018-11-23T07:31:05.846Z,352
2018-11-23T07:32:07.232Z,372
2018-11-23T07:33:08.616Z,384
2018-11-23T07:34:09.996Z,400
2018-11-23T07:35:11.379Z,412
2018-11-23T07:36:12.769Z,428
2018-11-23T07:37:14.178Z,440
2018-11-23T07:38:15.567Z,456
2018-11-23T07:39:16.953Z,468
2018-11-23T07:40:18.346Z,476
2018-11-23T07:41:19.729Z,484
2018-11-23T07:42:21.225Z,492
2018-11-23T07:43:22.614Z,496
2018-11-23T07:44:24.009Z,500
2018-11-23T07:46:05.456Z,512
2018-11-23T07:47:47.363Z,524
2018-11-23T07:48:48.754Z,540
2018-11-23T07:49:50.130Z,532
2018-11-23T07:50:51.509Z,536
2018-11-23T07:51:52.893Z,540
2018-11-23T07:52:54.274Z,552
2018-11-23T07:53:55.656Z,572
2018-11-23T07:54:57.041Z,592
2018-11-23T07:55:58.418Z,636
2018-11-23T07:56:59.798Z,700
2018-11-23T07:58:01.181Z,728
2018-11-23T07:59:02.560Z,752
2018-11-23T08:00:03.940Z,788
2018-11-23T08:01:05.329Z,832
2018-11-23T08:02:06.716Z,872
2018-11-23T08:03:08.097Z,892
2018-11-23T08:04:09.476Z,928
2018-11-23T08:05:10.856Z,968
2018-11-23T08:06:12.238Z,1032
2018-11-23T08:07:13.622Z,1088
2018-11-23T08:08:15.010Z,1156
2018-11-23T08:09:16.418Z,1244
2018-11-23T08:10:17.792Z,1336
2018-11-23T08:11:19.182Z,1404
2018-11-23T08:12:20.575Z,1440
2018-11-23T08:13:21.968Z,1460
2018-11-23T08:14:23.363Z,1460
2018-11-23T08:15:24.744Z,1452
2018-11-23T08:16:26.136Z,1472
2018-11-23T08:17:27.528Z,1524
2018-11-23T08:18:29.035Z,1592
2018-11-23T08:19:30.461Z,1684
2018-11-23T08:20:31.844Z,1772
2018-11-23T08:21:33.224Z,1860
2018-11-23T08:22:34.607Z,1924
2018-11-23T08:23:35.990Z,1968
2018-11-23T08:24:37.374Z,1988
2018-11-23T08:25:38.753Z,2004
2018-11-23T08:26:40.137Z,1996
2018-11-23T08:27:41.518Z,1980
2018-11-23T08:28:42.908Z,1968
2018-11-23T08:29:44.301Z,1956
2018-11-23T08:30:45.701Z,1960
2018-11-23T08:31:47.085Z,2004
2018-11-23T08:32:48.472Z,2036
2018-11-23T08:33:49.853Z,2056
2018-11-23T08:34:51.236Z,2076
2018-11-23T08:35:52.622Z,2120
2018-11-23T08:36:54.005Z,2152
2018-11-23T08:37:55.390Z,2172
2018-11-23T08:38:56.768Z,2172
2018-11-23T08:39:58.149Z,2220
2018-11-23T08:40:59.532Z,2308
2018-11-23T08:42:00.920Z,2392
2018-11-23T08:43:02.305Z,2476
2018-11-23T08:44:03.695Z,2508
2018-11-23T08:45:05.074Z,2500
2018-11-23T08:46:06.454Z,2460
2018-11-23T08:47:07.843Z,2480
2018-11-23T08:48:09.226Z,2552
2018-11-23T08:49:10.632Z,2616
2018-11-23T08:50:12.015Z,2684
2018-11-23T08:51:13.401Z,2728
2018-11-23T08:52:14.786Z,2800
2018-11-23T08:53:16.176Z,2908
2018-11-23T08:54:17.562Z,2948
2018-11-23T08:55:18.948Z,2972
2018-11-23T08:56:20.341Z,3024
2018-11-23T08:57:21.731Z,3120
2018-11-23T08:58:23.168Z,3292
2018-11-23T08:59:24.563Z,3460
2018-11-23T09:00:25.955Z,3560
2018-11-23T09:01:27.344Z,3540
2018-11-23T09:02:28.730Z,3460
2018-11-23T09:03:30.135Z,2956
2018-11-23T09:04:31.532Z,2828
2018-11-23T09:05:32.921Z,2860
2018-11-23T09:06:34.305Z,2992
2018-11-23T09:07:35.712Z,3244
2018-11-23T09:08:37.071Z,3356
2018-11-23T09:09:38.484Z,3448
2018-11-23T09:10:39.867Z,3296
2018-11-23T09:11:41.249Z,3876
2018-11-23T09:12:42.637Z,4508
2018-11-23T09:13:44.029Z,4344
2018-11-23T09:14:45.412Z,4708
2018-11-23T09:15:46.798Z,4768
2018-11-23T09:16:48.180Z,4752
2018-11-23T09:17:49.561Z,3840
2018-11-23T09:18:50.951Z,3704
2018-11-23T09:19:52.333Z,4164
2018-11-23T09:20:53.718Z,3400
2018-11-23T09:21:55.108Z,3916
2018-11-23T09:22:56.493Z,4600
2018-11-23T09:23:57.881Z,5468
2018-11-23T09:24:59.261Z,4988
2018-11-23T09:26:00.650Z,3676
2018-11-23T09:27:02.034Z,3444
2018-11-23T09:28:03.426Z,3280
2018-11-23T09:29:04.811Z,3092
2018-11-23T09:30:06.191Z,2940
2018-11-23T09:31:07.592Z,2796
2018-11-23T09:32:08.973Z,2620
2018-11-23T09:33:10.360Z,2504
2018-11-23T09:34:11.744Z,2564
2018-11-23T09:35:13.130Z,2628
2018-11-23T09:36:14.515Z,2660
2018-11-23T09:37:15.900Z,2700
2018-11-23T09:38:17.293Z,2736
2018-11-23T09:39:18.679Z,2784
2018-11-23T09:40:20.063Z,2904
2018-11-23T09:41:21.456Z,3400
2018-11-23T09:42:22.848Z,5144
2018-11-23T09:43:24.228Z,4216
2018-11-23T09:44:25.607Z,4264
2018-11-23T09:45:26.991Z,4604
2018-11-23T09:46:28.374Z,5136
2018-11-23T09:47:29.769Z,5028
2018-11-23T09:48:31.148Z,5488
2018-11-23T09:49:32.535Z,6440
2018-11-23T09:50:33.935Z,6884
2018-11-23T09:51:35.326Z,7068
2018-11-23T09:52:36.710Z,7136
2018-11-23T09:53:38.097Z,7340
2018-11-23T09:54:39.481Z,7496
2018-11-23T09:55:40.872Z,7536
2018-11-23T09:56:42.258Z,7624
2018-11-23T09:57:43.639Z,7736
2018-11-23T09:58:45.024Z,7824
2018-11-23T09:59:46.494Z,8092
2018-11-23T10:00:47.884Z,5464
2018-11-23T10:01:49.272Z,5060
2018-11-23T10:02:50.658Z,4940
2018-11-23T10:03:52.067Z,5112
2018-11-23T10:04:53.457Z,7032
2018-11-23T10:05:54.824Z,7076
2018-11-23T10:06:56.207Z,7464
2018-11-23T10:07:57.593Z,6848
2018-11-23T10:08:58.981Z,7628
2018-11-23T10:10:00.372Z,9440
2018-11-23T10:11:01.775Z,9584
2018-11-23T10:12:03.165Z,7988
2018-11-23T10:13:04.552Z,5904
2018-11-23T10:14:05.943Z,5732
2018-11-23T10:15:07.330Z,5752
2018-11-23T10:16:08.718Z,5888
2018-11-23T10:17:10.106Z,8504
2018-11-23T10:18:11.499Z,6644
2018-11-23T10:19:12.891Z,5364
2018-11-23T10:20:14.294Z,5456
2018-11-23T10:21:15.664Z,5364
2018-11-23T10:22:17.057Z,6264
2018-11-23T10:23:18.447Z,5676
2018-11-23T10:24:19.867Z,5512
2018-11-23T10:25:21.234Z,5180
2018-11-23T10:26:22.654Z,5052
2018-11-23T10:27:24.073Z,5160
2018-11-23T10:28:25.440Z,5404
2018-11-23T10:29:26.826Z,5652
2018-11-23T10:30:28.211Z,5836
2018-11-23T10:31:29.603Z,6708
2018-11-23T10:32:31.060Z,6932
2018-11-23T10:33:32.444Z,7008
2018-11-23T10:34:33.834Z,11704
2018-11-23T10:35:35.223Z,17152
2018-11-23T10:36:36.612Z,11260
2018-11-23T10:37:38.002Z,11536
2018-11-23T10:38:39.392Z,7560
2018-11-23T10:39:40.784Z,8524
2018-11-23T10:40:42.174Z,7024
2018-11-23T10:41:43.560Z,7316
2018-11-23T10:42:44.951Z,6876
2018-11-23T10:43:46.338Z,6972
2018-11-23T10:44:47.730Z,6984
2018-11-23T10:45:49.117Z,6504
2018-11-23T10:46:50.512Z,7184
2018-11-23T10:47:51.920Z,6968
2018-11-23T10:48:53.318Z,9276
2018-11-23T10:49:54.711Z,10696
2018-11-23T10:50:56.138Z,13348
2018-11-23T10:51:57.512Z,28096
2018-11-23T10:52:58.934Z,21920
2018-11-23T10:54:00.317Z,16768
2018-11-23T10:55:01.709Z,26464
2018-11-23T10:56:03.100Z,32480
2018-11-23T10:57:04.562Z,18496
2018-11-23T10:58:05.909Z,11068
2018-11-23T10:59:07.302Z,13164
2018-11-23T11:00:08.696Z,10812
2018-11-23T11:01:10.091Z,13796
2018-11-23T11:02:11.485Z,17184
2018-11-23T11:03:12.882Z,13844
2018-11-23T11:04:14.280Z,22496
2018-11-23T11:05:15.672Z,30144
2018-11-23T11:06:17.099Z,18880
2018-11-23T11:07:18.494Z,9192
2018-11-23T11:08:19.887Z,8044
2018-11-23T11:09:21.279Z,7912
2018-11-23T11:10:22.666Z,7796
2018-11-23T11:11:24.092Z,7628
2018-11-23T11:12:25.484Z,7620
2018-11-23T11:13:26.880Z,7004
2018-11-23T11:14:28.287Z,7100
2018-11-23T11:15:29.677Z,7760
2018-11-23T11:16:31.065Z,8088
2018-11-23T11:17:32.459Z,8404
2018-11-23T11:18:33.851Z,8260
2018-11-23T11:19:35.251Z,7296
2018-11-23T11:20:36.660Z,6616
2018-11-23T11:21:38.055Z,6372
2018-11-23T11:22:39.446Z,6312
2018-11-23T11:23:40.840Z,6216
2018-11-23T11:24:42.228Z,6216
2018-11-23T11:25:43.673Z,6212
2018-11-23T11:26:45.061Z,6216
2018-11-23T11:27:46.455Z,6156
2018-11-23T11:28:47.855Z,6116
2018-11-23T11:29:49.258Z,6104
2018-11-23T11:30:50.646Z,6096
2018-11-23T11:31:52.035Z,6068
2018-11-23T11:32:53.424Z,6176
2018-11-23T11:33:54.837Z,7064
2018-11-23T11:34:56.256Z,13512
2018-11-23T11:35:57.653Z,25440
2018-11-23T11:36:59.044Z,24032
2018-11-23T11:38:00.486Z,20640
2018-11-23T11:39:02.030Z,32032
2018-11-23T11:40:03.473Z,36416
2018-11-23T11:41:04.865Z,35872
2018-11-23T11:42:06.257Z,35904
2018-11-23T11:43:07.664Z,37024
2018-11-23T11:44:09.065Z,38912
2018-11-23T11:45:10.450Z,40384
2018-11-23T11:46:11.849Z,39552
2018-11-23T11:47:13.258Z,39936
2018-11-23T11:48:14.653Z,40608
2018-11-23T11:49:16.051Z,37088
2018-11-23T11:50:17.546Z,35456
2018-11-23T11:51:18.978Z,35808
2018-11-23T11:52:20.402Z,37760
2018-11-23T11:53:21.802Z,39040
2018-11-23T11:54:23.201Z,39680
2018-11-23T11:55:24.596Z,40960
2018-11-23T11:56:26.006Z,38560
2018-11-23T11:57:27.404Z,36864
2018-11-23T11:58:28.800Z,35776
2018-11-23T11:59:30.195Z,37728
2018-11-23T12:00:31.594Z,40160
2018-11-23T12:01:33.010Z,41152
2018-11-23T12:02:34.410Z,40800
2018-11-23T12:03:35.805Z,40000
2018-11-23T12:04:37.203Z,38912
2018-11-23T12:05:38.600Z,38368
2018-11-23T12:06:40.000Z,37856
2018-11-23T12:07:41.400Z,38048
2018-11-23T12:08:42.806Z,40032
2018-11-23T12:09:44.199Z,41472
2018-11-23T12:10:45.598Z,40800
2018-11-23T12:11:46.997Z,39392
2018-11-23T12:12:48.395Z,35552
2018-11-23T12:13:49.790Z,34464
2018-11-23T12:14:51.193Z,34368
2018-11-23T12:15:52.582Z,35136
2018-11-23T12:16:54.007Z,35488
2018-11-23T12:17:55.419Z,35776
2018-11-23T12:18:56.823Z,36576
2018-11-23T12:19:58.218Z,35904
2018-11-23T12:20:59.751Z,35168
2018-11-23T12:22:01.168Z,33536
2018-11-23T12:23:02.567Z,30496
2018-11-23T12:24:03.968Z,24640
2018-11-23T12:25:05.359Z,18208
2018-11-23T12:26:06.805Z,11376
2018-11-23T12:27:08.192Z,6468
2018-11-23T12:28:09.583Z,5212
2018-11-23T12:29:10.993Z,5020
2018-11-23T12:30:12.393Z,4912
2018-11-23T12:31:13.781Z,4828
2018-11-23T12:32:15.189Z,4812
2018-11-23T12:33:16.597Z,4752
2018-11-23T12:34:17.990Z,4704
2018-11-23T12:35:19.386Z,4668
2018-11-23T12:36:20.780Z,4572
2018-11-23T12:37:22.177Z,4524
2018-11-23T12:38:23.571Z,4508
2018-11-23T12:39:24.967Z,4484
2018-11-23T12:40:26.361Z,4460
2018-11-23T12:41:27.756Z,4380
2018-11-23T12:42:29.154Z,4360
2018-11-23T12:43:30.547Z,4328
2018-11-23T12:44:31.953Z,4280
2018-11-23T12:45:33.349Z,4252
2018-11-23T12:46:34.742Z,4220
2018-11-23T12:47:36.147Z,4152
2018-11-23T12:48:37.544Z,4140
2018-11-23T12:49:38.946Z,4096
2018-11-23T12:50:40.346Z,4080
2018-11-23T12:51:41.734Z,4044
2018-11-23T12:52:43.145Z,4028
2018-11-23T12:53:44.542Z,4016
2018-11-23T12:54:45.944Z,3984
2018-11-23T12:55:47.356Z,3928
2018-11-23T12:56:48.770Z,3896
2018-11-23T12:57:50.188Z,3832
2018-11-23T12:58:51.584Z,3816
2018-11-23T12:59:52.989Z,3768
2018-11-23T13:00:54.384Z,3748
2018-11-23T13:01:55.793Z,3716
2018-11-23T13:02:57.210Z,3696
2018-11-23T13:03:58.582Z,3668
2018-11-23T13:04:59.971Z,3640
2018-11-23T13:06:01.368Z,3588
2018-11-23T13:07:02.762Z,3576
2018-11-23T13:08:04.152Z,3540
2018-11-23T13:09:05.607Z,3512
2018-11-23T13:10:07.003Z,3496
2018-11-23T13:11:08.394Z,3488
2018-11-23T13:12:09.778Z,3476
2018-11-23T13:13:11.184Z,3416
2018-11-23T13:14:12.585Z,3368
2018-11-23T13:15:14.078Z,3348
2018-11-23T13:16:15.467Z,3332
2018-11-23T13:17:16.859Z,3304
2018-11-23T13:18:18.249Z,3280
2018-11-23T13:19:19.639Z,3240
2018-11-23T13:20:21.027Z,3208
2018-11-23T13:21:22.419Z,3180
2018-11-23T13:22:23.813Z,3132
2018-11-23T13:23:25.213Z,3092
2018-11-23T13:24:26.603Z,3024
2018-11-23T13:25:27.998Z,2972
2018-11-23T13:26:29.389Z,2904
2018-11-23T13:27:30.786Z,2840
2018-11-23T13:28:32.177Z,2772
2018-11-23T13:29:33.567Z,2684
2018-11-23T13:30:34.959Z,2608
2018-11-23T13:31:36.357Z,2528
2018-11-23T13:32:37.750Z,2444
2018-11-23T13:33:39.148Z,2348
2018-11-23T13:34:40.536Z,2252
2018-11-23T13:35:41.933Z,2128
2018-11-23T13:36:43.322Z,2008
2018-11-23T13:37:44.714Z,1896
2018-11-23T13:38:46.102Z,1776
2018-11-23T13:39:47.499Z,1660
2018-11-23T13:40:48.883Z,1572
2018-11-23T13:41:50.265Z,1476
2018-11-23T13:42:51.656Z,1372
2018-11-23T13:43:53.051Z,1280
2018-11-23T13:44:54.435Z,1216
2018-11-23T13:45:55.826Z,1168
2018-11-23T13:46:57.219Z,1116
2018-11-23T13:47:58.601Z,1092
2018-11-23T13:48:59.991Z,1072
2018-11-23T13:50:01.384Z,1064
2018-11-23T13:51:02.782Z,1052
2018-11-23T13:52:04.183Z,1048
2018-11-23T13:53:05.577Z,1040
2018-11-23T13:54:06.958Z,1028
2018-11-23T13:55:08.350Z,1012
2018-11-23T13:56:09.741Z,1012
2018-11-23T13:57:11.126Z,1004
2018-11-23T13:58:12.509Z,992
2018-11-23T13:59:13.918Z,980
2018-11-23T14:00:15.319Z,976
2018-11-23T14:01:16.704Z,964
2018-11-23T14:02:18.091Z,956
2018-11-23T14:03:19.473Z,952
2018-11-23T14:04:20.938Z,948
2018-11-23T14:05:22.342Z,940
2018-11-23T14:06:23.739Z,936
2018-11-23T14:07:25.129Z,936
2018-11-23T14:08:26.512Z,924
2018-11-23T14:09:27.899Z,916
2018-11-23T14:10:29.287Z,896
2018-11-23T14:11:30.692Z,892
2018-11-23T14:12:32.086Z,892
2018-11-23T14:13:33.483Z,884
2018-11-23T14:14:34.881Z,880
2018-11-23T14:15:36.276Z,872
2018-11-23T14:16:37.669Z,860
2018-11-23T14:17:39.055Z,848
2018-11-23T14:18:40.445Z,844
2018-11-23T14:19:41.829Z,844
2018-11-23T14:20:43.224Z,844